sensor_id;sensor_type;location;lat;lon;timestamp;P1;durP1;ratioP1;P2;durP2;ratioP2
7027;SDS011;3555;53.248;10.336;2022-08-19T00:01:15;8.43;;;5.80;;
7027;SDS011;3555;53.248;10.336;2022-08-19T00:03:42;9.75;;;7.07;;
7027;SDS011;3555;53.248;10.336;2022-08-19T00:06:09;6.82;;;5.43;;
7027;SDS011;3555;53.248;10.336;2022-08-19T00:08:36;6.95;;;5.78;;
7027;SDS011;3555;53.248;10.336;2022-08-19T00:11:03;8.63;;;6.22;;
7027;SDS011;3555;53.248;10.336;2022-08-19T00:13:31;7.88;;;5.82;;
7027;SDS011;3555;53.248;10.336;2022-08-19T00:15:58;8.20;;;5.38;;
7027;SDS011;3555;53.248;10.336;2022-08-19T00:18:25;7.45;;;5.40;;
7027;SDS011;3555;53.248;10.336;2022-08-19T00:20:52;7.95;;;5.13;;
7027;SDS011;3555;53.248;10.336;2022-08-19T00:23:19;9.60;;;5.72;;
7027;SDS011;3555;53.248;10.336;2022-08-19T00:25:46;6.78;;;5.60;;
7027;SDS011;3555;53.248;10.336;2022-08-19T00:28:13;8.00;;;5.93;;
7027;SDS011;3555;53.248;10.336;2022-08-19T00:30:42;8.65;;;5.32;;
7027;SDS011;3555;53.248;10.336;2022-08-19T00:33:09;9.57;;;5.47;;
7027;SDS011;3555;53.248;10.336;2022-08-19T00:35:35;8.43;;;5.80;;
7027;SDS011;3555;53.248;10.336;2022-08-19T00:38:03;10.65;;;5.85;;
7027;SDS011;3555;53.248;10.336;2022-08-19T00:40:31;8.77;;;5.85;;
7027;SDS011;3555;53.248;10.336;2022-08-19T00:42:58;7.30;;;5.47;;
7027;SDS011;3555;53.248;10.336;2022-08-19T00:45:26;7.95;;;5.28;;
7027;SDS011;3555;53.248;10.336;2022-08-19T00:47:57;9.05;;;6.25;;
7027;SDS011;3555;53.248;10.336;2022-08-19T00:50:28;7.70;;;5.25;;
7027;SDS011;3555;53.248;10.336;2022-08-19T00:52:56;9.35;;;6.53;;
7027;SDS011;3555;53.248;10.336;2022-08-19T00:55:25;6.57;;;5.45;;
7027;SDS011;3555;53.248;10.336;2022-08-19T00:57:55;6.53;;;5.20;;
7027;SDS011;3555;53.248;10.336;2022-08-19T01:00:25;6.38;;;5.53;;
7027;SDS011;3555;53.248;10.336;2022-08-19T01:02:53;7.95;;;5.82;;
7027;SDS011;3555;53.248;10.336;2022-08-19T01:05:22;9.15;;;5.55;;
7027;SDS011;3555;53.248;10.336;2022-08-19T01:07:53;7.13;;;4.97;;
7027;SDS011;3555;53.248;10.336;2022-08-19T01:10:23;8.82;;;5.60;;
7027;SDS011;3555;53.248;10.336;2022-08-19T01:12:52;6.30;;;4.90;;
7027;SDS011;3555;53.248;10.336;2022-08-19T01:15:21;7.50;;;5.28;;
7027;SDS011;3555;53.248;10.336;2022-08-19T01:17:51;6.90;;;4.88;;
7027;SDS011;3555;53.248;10.336;2022-08-19T01:20:20;6.32;;;5.10;;
7027;SDS011;3555;53.248;10.336;2022-08-19T01:22:51;7.10;;;5.50;;
7027;SDS011;3555;53.248;10.336;2022-08-19T01:25:21;6.88;;;5.35;;
7027;SDS011;3555;53.248;10.336;2022-08-19T01:27:51;6.22;;;5.00;;
7027;SDS011;3555;53.248;10.336;2022-08-19T01:30:19;7.63;;;5.40;;
7027;SDS011;3555;53.248;10.336;2022-08-19T01:32:47;7.85;;;5.68;;
7027;SDS011;3555;53.248;10.336;2022-08-19T01:35:14;8.73;;;5.63;;
7027;SDS011;3555;53.248;10.336;2022-08-19T01:37:46;6.80;;;4.88;;
7027;SDS011;3555;53.248;10.336;2022-08-19T01:40:16;7.63;;;5.78;;
7027;SDS011;3555;53.248;10.336;2022-08-19T01:42:45;7.82;;;5.18;;
7027;SDS011;3555;53.248;10.336;2022-08-19T01:45:12;6.95;;;5.43;;
7027;SDS011;3555;53.248;10.336;2022-08-19T01:47:39;6.60;;;5.22;;
7027;SDS011;3555;53.248;10.336;2022-08-19T01:50:07;9.15;;;5.25;;
7027;SDS011;3555;53.248;10.336;2022-08-19T01:52:36;9.25;;;5.72;;
7027;SDS011;3555;53.248;10.336;2022-08-19T01:55:04;6.05;;;5.13;;
7027;SDS011;3555;53.248;10.336;2022-08-19T01:57:34;7.30;;;5.75;;
7027;SDS011;3555;53.248;10.336;2022-08-19T02:00:02;7.82;;;4.85;;
7027;SDS011;3555;53.248;10.336;2022-08-19T02:02:32;7.25;;;5.60;;
7027;SDS011;3555;53.248;10.336;2022-08-19T02:04:59;7.53;;;5.35;;
7027;SDS011;3555;53.248;10.336;2022-08-19T02:07:25;8.32;;;5.75;;
7027;SDS011;3555;53.248;10.336;2022-08-19T02:09:53;6.53;;;5.47;;
7027;SDS011;3555;53.248;10.336;2022-08-19T02:12:20;5.95;;;5.20;;
7027;SDS011;3555;53.248;10.336;2022-08-19T02:14:48;9.18;;;5.75;;
7027;SDS011;3555;53.248;10.336;2022-08-19T02:17:15;6.20;;;5.30;;
7027;SDS011;3555;53.248;10.336;2022-08-19T02:19:45;9.85;;;5.47;;
7027;SDS011;3555;53.248;10.336;2022-08-19T02:22:13;7.82;;;5.20;;
7027;SDS011;3555;53.248;10.336;2022-08-19T02:24:40;6.05;;;4.50;;
7027;SDS011;3555;53.248;10.336;2022-08-19T02:27:07;7.40;;;4.50;;
7027;SDS011;3555;53.248;10.336;2022-08-19T02:29:34;7.40;;;5.07;;
7027;SDS011;3555;53.248;10.336;2022-08-19T02:32:02;8.23;;;4.95;;
7027;SDS011;3555;53.248;10.336;2022-08-19T02:34:29;5.50;;;4.75;;
7027;SDS011;3555;53.248;10.336;2022-08-19T02:36:57;8.85;;;5.35;;
7027;SDS011;3555;53.248;10.336;2022-08-19T02:39:24;7.25;;;4.95;;
7027;SDS011;3555;53.248;10.336;2022-08-19T02:41:49;8.57;;;6.15;;
7027;SDS011;3555;53.248;10.336;2022-08-19T02:44:17;6.85;;;5.35;;
7027;SDS011;3555;53.248;10.336;2022-08-19T02:46:44;7.55;;;5.15;;
7027;SDS011;3555;53.248;10.336;2022-08-19T02:49:14;8.88;;;5.50;;
7027;SDS011;3555;53.248;10.336;2022-08-19T02:51:41;6.13;;;5.00;;
7027;SDS011;3555;53.248;10.336;2022-08-19T02:54:10;7.25;;;5.65;;
7027;SDS011;3555;53.248;10.336;2022-08-19T02:56:40;6.40;;;4.85;;
7027;SDS011;3555;53.248;10.336;2022-08-19T02:59:07;6.18;;;4.50;;
7027;SDS011;3555;53.248;10.336;2022-08-19T03:01:35;7.25;;;5.07;;
7027;SDS011;3555;53.248;10.336;2022-08-19T03:04:03;5.90;;;5.18;;
7027;SDS011;3555;53.248;10.336;2022-08-19T03:06:35;8.30;;;6.45;;
7027;SDS011;3555;53.248;10.336;2022-08-19T03:09:03;9.60;;;5.97;;
7027;SDS011;3555;53.248;10.336;2022-08-19T03:11:30;7.50;;;6.30;;
7027;SDS011;3555;53.248;10.336;2022-08-19T03:13:58;9.23;;;7.30;;
7027;SDS011;3555;53.248;10.336;2022-08-19T03:16:26;10.40;;;8.07;;
7027;SDS011;3555;53.248;10.336;2022-08-19T03:18:55;11.98;;;7.72;;
7027;SDS011;3555;53.248;10.336;2022-08-19T03:21:25;17.67;;;8.82;;
7027;SDS011;3555;53.248;10.336;2022-08-19T03:23:54;11.23;;;7.35;;
7027;SDS011;3555;53.248;10.336;2022-08-19T03:26:22;9.45;;;7.63;;
7027;SDS011;3555;53.248;10.336;2022-08-19T03:28:49;12.15;;;8.35;;
7027;SDS011;3555;53.248;10.336;2022-08-19T03:31:17;11.45;;;7.43;;
7027;SDS011;3555;53.248;10.336;2022-08-19T03:33:45;11.02;;;7.93;;
7027;SDS011;3555;53.248;10.336;2022-08-19T03:36:14;11.02;;;7.63;;
7027;SDS011;3555;53.248;10.336;2022-08-19T03:38:43;8.93;;;6.72;;
7027;SDS011;3555;53.248;10.336;2022-08-19T03:41:15;7.47;;;6.03;;
7027;SDS011;3555;53.248;10.336;2022-08-19T03:43:43;9.93;;;6.50;;
7027;SDS011;3555;53.248;10.336;2022-08-19T03:46:12;10.48;;;6.78;;
7027;SDS011;3555;53.248;10.336;2022-08-19T03:48:41;9.25;;;6.38;;
7027;SDS011;3555;53.248;10.336;2022-08-19T03:51:15;10.52;;;7.13;;
7027;SDS011;3555;53.248;10.336;2022-08-19T03:53:43;8.13;;;6.38;;
7027;SDS011;3555;53.248;10.336;2022-08-19T03:56:09;7.25;;;6.40;;
7027;SDS011;3555;53.248;10.336;2022-08-19T03:58:39;8.27;;;5.85;;
7027;SDS011;3555;53.248;10.336;2022-08-19T04:01:07;10.32;;;6.35;;
7027;SDS011;3555;53.248;10.336;2022-08-19T04:03:35;8.93;;;6.60;;
7027;SDS011;3555;53.248;10.336;2022-08-19T04:06:08;9.82;;;6.53;;
7027;SDS011;3555;53.248;10.336;2022-08-19T04:08:37;8.63;;;6.10;;
7027;SDS011;3555;53.248;10.336;2022-08-19T04:11:06;7.38;;;6.25;;
7027;SDS011;3555;53.248;10.336;2022-08-19T04:13:34;8.90;;;6.57;;
7027;SDS011;3555;53.248;10.336;2022-08-19T04:16:02;8.10;;;6.95;;
7027;SDS011;3555;53.248;10.336;2022-08-19T04:18:30;9.70;;;6.72;;
7027;SDS011;3555;53.248;10.336;2022-08-19T04:20:57;8.88;;;6.25;;
7027;SDS011;3555;53.248;10.336;2022-08-19T04:23:24;10.15;;;6.50;;
7027;SDS011;3555;53.248;10.336;2022-08-19T04:25:53;8.10;;;6.10;;
7027;SDS011;3555;53.248;10.336;2022-08-19T04:28:21;10.13;;;6.60;;
7027;SDS011;3555;53.248;10.336;2022-08-19T04:30:49;9.60;;;6.38;;
7027;SDS011;3555;53.248;10.336;2022-08-19T04:33:22;11.60;;;8.52;;
7027;SDS011;3555;53.248;10.336;2022-08-19T04:35:51;9.30;;;7.35;;
7027;SDS011;3555;53.248;10.336;2022-08-19T04:38:19;12.95;;;8.70;;
7027;SDS011;3555;53.248;10.336;2022-08-19T04:40:48;13.80;;;9.38;;
7027;SDS011;3555;53.248;10.336;2022-08-19T04:43:34;12.23;;;8.95;;
7027;SDS011;3555;53.248;10.336;2022-08-19T04:46:04;13.38;;;9.15;;
7027;SDS011;3555;53.248;10.336;2022-08-19T04:48:33;10.90;;;8.90;;
7027;SDS011;3555;53.248;10.336;2022-08-19T04:50:59;16.95;;;8.88;;
7027;SDS011;3555;53.248;10.336;2022-08-19T04:53:27;14.30;;;8.90;;
7027;SDS011;3555;53.248;10.336;2022-08-19T04:55:56;13.73;;;8.57;;
7027;SDS011;3555;53.248;10.336;2022-08-19T04:58:24;12.63;;;8.23;;
7027;SDS011;3555;53.248;10.336;2022-08-19T05:00:53;10.30;;;7.80;;
7027;SDS011;3555;53.248;10.336;2022-08-19T05:03:20;12.93;;;7.88;;
7027;SDS011;3555;53.248;10.336;2022-08-19T05:05:48;11.20;;;7.30;;
7027;SDS011;3555;53.248;10.336;2022-08-19T05:08:16;12.43;;;8.15;;
7027;SDS011;3555;53.248;10.336;2022-08-19T05:10:46;8.63;;;6.32;;
7027;SDS011;3555;53.248;10.336;2022-08-19T05:13:13;12.13;;;8.10;;
7027;SDS011;3555;53.248;10.336;2022-08-19T05:15:42;11.90;;;7.65;;
7027;SDS011;3555;53.248;10.336;2022-08-19T05:18:09;9.38;;;6.97;;
7027;SDS011;3555;53.248;10.336;2022-08-19T05:20:55;9.85;;;7.43;;
7027;SDS011;3555;53.248;10.336;2022-08-19T05:23:39;13.10;;;7.97;;
7027;SDS011;3555;53.248;10.336;2022-08-19T05:26:06;10.60;;;8.00;;
7027;SDS011;3555;53.248;10.336;2022-08-19T05:28:35;13.00;;;7.95;;
7027;SDS011;3555;53.248;10.336;2022-08-19T05:31:02;10.30;;;7.72;;
7027;SDS011;3555;53.248;10.336;2022-08-19T05:33:29;11.93;;;7.97;;
7027;SDS011;3555;53.248;10.336;2022-08-19T05:35:57;10.50;;;6.97;;
7027;SDS011;3555;53.248;10.336;2022-08-19T05:38:24;10.63;;;7.68;;
7027;SDS011;3555;53.248;10.336;2022-08-19T05:40:52;10.98;;;7.32;;
7027;SDS011;3555;53.248;10.336;2022-08-19T05:43:19;16.02;;;8.65;;
7027;SDS011;3555;53.248;10.336;2022-08-19T05:45:46;11.27;;;7.50;;
7027;SDS011;3555;53.248;10.336;2022-08-19T05:48:12;14.25;;;9.07;;
7027;SDS011;3555;53.248;10.336;2022-08-19T05:50:42;14.43;;;7.70;;
7027;SDS011;3555;53.248;10.336;2022-08-19T05:53:11;15.23;;;9.15;;
7027;SDS011;3555;53.248;10.336;2022-08-19T05:55:41;13.50;;;8.88;;
7027;SDS011;3555;53.248;10.336;2022-08-19T05:58:08;16.20;;;9.55;;
7027;SDS011;3555;53.248;10.336;2022-08-19T06:00:35;14.52;;;9.57;;
7027;SDS011;3555;53.248;10.336;2022-08-19T06:03:03;14.77;;;8.55;;
7027;SDS011;3555;53.248;10.336;2022-08-19T06:05:30;17.15;;;10.75;;
7027;SDS011;3555;53.248;10.336;2022-08-19T06:07:58;15.45;;;10.48;;
7027;SDS011;3555;53.248;10.336;2022-08-19T06:10:26;14.93;;;11.20;;
7027;SDS011;3555;53.248;10.336;2022-08-19T06:12:55;13.88;;;11.05;;
7027;SDS011;3555;53.248;10.336;2022-08-19T06:15:21;19.92;;;10.85;;
7027;SDS011;3555;53.248;10.336;2022-08-19T06:17:50;18.08;;;11.93;;
7027;SDS011;3555;53.248;10.336;2022-08-19T06:20:17;22.42;;;13.02;;
7027;SDS011;3555;53.248;10.336;2022-08-19T06:22:46;22.27;;;14.23;;
7027;SDS011;3555;53.248;10.336;2022-08-19T06:25:15;24.70;;;15.13;;
7027;SDS011;3555;53.248;10.336;2022-08-19T06:27:44;25.05;;;15.95;;
7027;SDS011;3555;53.248;10.336;2022-08-19T06:30:11;24.15;;;15.27;;
7027;SDS011;3555;53.248;10.336;2022-08-19T06:32:39;22.10;;;14.75;;
7027;SDS011;3555;53.248;10.336;2022-08-19T06:35:06;24.05;;;15.40;;
7027;SDS011;3555;53.248;10.336;2022-08-19T06:37:33;30.48;;;19.23;;
7027;SDS011;3555;53.248;10.336;2022-08-19T06:40:00;28.75;;;18.55;;
7027;SDS011;3555;53.248;10.336;2022-08-19T06:42:27;25.75;;;17.58;;
7027;SDS011;3555;53.248;10.336;2022-08-19T06:44:55;21.30;;;16.95;;
7027;SDS011;3555;53.248;10.336;2022-08-19T06:47:23;25.08;;;17.33;;
7027;SDS011;3555;53.248;10.336;2022-08-19T06:49:52;33.55;;;18.55;;
7027;SDS011;3555;53.248;10.336;2022-08-19T06:52:20;19.48;;;15.27;;
7027;SDS011;3555;53.248;10.336;2022-08-19T06:54:48;26.38;;;17.00;;
7027;SDS011;3555;53.248;10.336;2022-08-19T06:57:15;23.75;;;17.73;;
7027;SDS011;3555;53.248;10.336;2022-08-19T06:59:42;23.15;;;18.05;;
7027;SDS011;3555;53.248;10.336;2022-08-19T07:02:10;23.42;;;17.73;;
7027;SDS011;3555;53.248;10.336;2022-08-19T07:04:37;21.10;;;16.48;;
7027;SDS011;3555;53.248;10.336;2022-08-19T07:07:05;22.83;;;17.92;;
7027;SDS011;3555;53.248;10.336;2022-08-19T07:09:34;26.30;;;18.77;;
7027;SDS011;3555;53.248;10.336;2022-08-19T07:12:03;24.40;;;18.77;;
7027;SDS011;3555;53.248;10.336;2022-08-19T07:14:32;27.08;;;19.98;;
7027;SDS011;3555;53.248;10.336;2022-08-19T07:17:02;26.08;;;19.38;;
7027;SDS011;3555;53.248;10.336;2022-08-19T07:19:33;25.40;;;17.38;;
7027;SDS011;3555;53.248;10.336;2022-08-19T07:22:01;26.63;;;20.10;;
7027;SDS011;3555;53.248;10.336;2022-08-19T07:24:29;25.73;;;18.98;;
7027;SDS011;3555;53.248;10.336;2022-08-19T07:26:58;27.98;;;21.55;;
7027;SDS011;3555;53.248;10.336;2022-08-19T07:29:26;26.92;;;20.17;;
7027;SDS011;3555;53.248;10.336;2022-08-19T07:31:54;26.20;;;18.30;;
7027;SDS011;3555;53.248;10.336;2022-08-19T07:34:23;30.13;;;20.58;;
7027;SDS011;3555;53.248;10.336;2022-08-19T07:36:52;30.42;;;20.88;;
7027;SDS011;3555;53.248;10.336;2022-08-19T07:39:22;28.38;;;20.65;;
7027;SDS011;3555;53.248;10.336;2022-08-19T07:41:50;32.47;;;23.15;;
7027;SDS011;3555;53.248;10.336;2022-08-19T07:44:18;30.50;;;21.25;;
7027;SDS011;3555;53.248;10.336;2022-08-19T07:46:47;34.50;;;22.27;;
7027;SDS011;3555;53.248;10.336;2022-08-19T07:49:16;30.77;;;22.55;;
7027;SDS011;3555;53.248;10.336;2022-08-19T07:51:44;30.42;;;21.55;;
7027;SDS011;3555;53.248;10.336;2022-08-19T07:54:13;28.77;;;19.75;;
7027;SDS011;3555;53.248;10.336;2022-08-19T07:56:40;31.23;;;21.60;;
7027;SDS011;3555;53.248;10.336;2022-08-19T07:59:07;31.63;;;22.13;;
7027;SDS011;3555;53.248;10.336;2022-08-19T08:01:35;34.10;;;22.08;;
7027;SDS011;3555;53.248;10.336;2022-08-19T08:04:02;33.15;;;21.35;;
7027;SDS011;3555;53.248;10.336;2022-08-19T08:06:47;31.48;;;22.27;;
7027;SDS011;3555;53.248;10.336;2022-08-19T08:09:34;32.15;;;21.42;;
7027;SDS011;3555;53.248;10.336;2022-08-19T08:12:04;38.42;;;23.65;;
7027;SDS011;3555;53.248;10.336;2022-08-19T08:14:36;31.77;;;21.55;;
7027;SDS011;3555;53.248;10.336;2022-08-19T08:17:05;33.70;;;22.40;;
7027;SDS011;3555;53.248;10.336;2022-08-19T08:19:33;35.05;;;22.08;;
7027;SDS011;3555;53.248;10.336;2022-08-19T08:22:00;37.47;;;20.92;;
7027;SDS011;3555;53.248;10.336;2022-08-19T08:24:29;34.47;;;22.08;;
7027;SDS011;3555;53.248;10.336;2022-08-19T08:26:58;36.72;;;22.35;;
7027;SDS011;3555;53.248;10.336;2022-08-19T08:29:26;33.55;;;20.85;;
7027;SDS011;3555;53.248;10.336;2022-08-19T08:31:54;36.35;;;22.20;;
7027;SDS011;3555;53.248;10.336;2022-08-19T08:34:21;32.00;;;20.45;;
7027;SDS011;3555;53.248;10.336;2022-08-19T08:36:48;27.42;;;20.27;;
7027;SDS011;3555;53.248;10.336;2022-08-19T08:39:18;33.88;;;19.92;;
7027;SDS011;3555;53.248;10.336;2022-08-19T08:41:49;30.90;;;20.83;;
7027;SDS011;3555;53.248;10.336;2022-08-19T08:44:22;29.05;;;19.75;;
7027;SDS011;3555;53.248;10.336;2022-08-19T08:46:55;33.33;;;20.42;;
7027;SDS011;3555;53.248;10.336;2022-08-19T08:49:26;33.10;;;20.05;;
7027;SDS011;3555;53.248;10.336;2022-08-19T08:51:59;32.65;;;19.40;;
7027;SDS011;3555;53.248;10.336;2022-08-19T08:54:32;30.38;;;18.73;;
7027;SDS011;3555;53.248;10.336;2022-08-19T08:57:02;34.17;;;19.77;;
7027;SDS011;3555;53.248;10.336;2022-08-19T08:59:35;29.17;;;17.75;;
7027;SDS011;3555;53.248;10.336;2022-08-19T09:02:05;29.95;;;18.52;;
7027;SDS011;3555;53.248;10.336;2022-08-19T09:04:33;24.73;;;17.45;;
7027;SDS011;3555;53.248;10.336;2022-08-19T09:07:05;29.73;;;17.38;;
7027;SDS011;3555;53.248;10.336;2022-08-19T09:09:45;25.48;;;16.08;;
7027;SDS011;3555;53.248;10.336;2022-08-19T09:12:17;26.33;;;16.15;;
7027;SDS011;3555;53.248;10.336;2022-08-19T09:14:49;24.90;;;15.90;;
7027;SDS011;3555;53.248;10.336;2022-08-19T09:17:23;27.70;;;16.73;;
7027;SDS011;3555;53.248;10.336;2022-08-19T09:19:56;26.33;;;16.77;;
7027;SDS011;3555;53.248;10.336;2022-08-19T09:22:29;27.15;;;16.90;;
7027;SDS011;3555;53.248;10.336;2022-08-19T09:24:56;23.33;;;16.48;;
7027;SDS011;3555;53.248;10.336;2022-08-19T09:27:24;23.23;;;15.68;;
7027;SDS011;3555;53.248;10.336;2022-08-19T09:29:53;23.42;;;16.02;;
7027;SDS011;3555;53.248;10.336;2022-08-19T09:32:20;23.42;;;16.55;;
7027;SDS011;3555;53.248;10.336;2022-08-19T09:34:47;22.95;;;13.90;;
7027;SDS011;3555;53.248;10.336;2022-08-19T09:37:14;22.90;;;15.05;;
7027;SDS011;3555;53.248;10.336;2022-08-19T09:39:41;22.23;;;14.38;;
7027;SDS011;3555;53.248;10.336;2022-08-19T09:42:09;24.75;;;16.55;;
7027;SDS011;3555;53.248;10.336;2022-08-19T09:44:37;25.80;;;16.27;;
7027;SDS011;3555;53.248;10.336;2022-08-19T09:47:06;23.27;;;15.20;;
7027;SDS011;3555;53.248;10.336;2022-08-19T09:49:33;28.85;;;16.98;;
7027;SDS011;3555;53.248;10.336;2022-08-19T09:52:00;25.52;;;15.23;;
7027;SDS011;3555;53.248;10.336;2022-08-19T09:54:27;24.30;;;14.95;;
7027;SDS011;3555;53.248;10.336;2022-08-19T09:56:55;24.42;;;14.80;;
7027;SDS011;3555;53.248;10.336;2022-08-19T09:59:25;25.10;;;15.40;;
7027;SDS011;3555;53.248;10.336;2022-08-19T10:01:52;19.50;;;12.82;;
7027;SDS011;3555;53.248;10.336;2022-08-19T10:04:20;22.92;;;13.60;;
7027;SDS011;3555;53.248;10.336;2022-08-19T10:06:48;19.70;;;13.18;;
7027;SDS011;3555;53.248;10.336;2022-08-19T10:09:16;20.77;;;13.07;;
7027;SDS011;3555;53.248;10.336;2022-08-19T10:11:44;18.33;;;11.75;;
7027;SDS011;3555;53.248;10.336;2022-08-19T10:14:13;21.70;;;15.02;;
7027;SDS011;3555;53.248;10.336;2022-08-19T10:16:41;22.52;;;15.35;;
7027;SDS011;3555;53.248;10.336;2022-08-19T10:19:08;23.73;;;14.95;;
7027;SDS011;3555;53.248;10.336;2022-08-19T10:21:37;23.38;;;14.50;;
7027;SDS011;3555;53.248;10.336;2022-08-19T10:24:05;25.10;;;15.68;;
7027;SDS011;3555;53.248;10.336;2022-08-19T10:26:33;24.88;;;13.30;;
7027;SDS011;3555;53.248;10.336;2022-08-19T10:29:02;24.88;;;14.70;;
7027;SDS011;3555;53.248;10.336;2022-08-19T10:31:31;27.02;;;15.15;;
7027;SDS011;3555;53.248;10.336;2022-08-19T10:33:59;28.65;;;17.48;;
7027;SDS011;3555;53.248;10.336;2022-08-19T10:36:28;30.02;;;15.88;;
7027;SDS011;3555;53.248;10.336;2022-08-19T10:39:00;23.42;;;15.27;;
7027;SDS011;3555;53.248;10.336;2022-08-19T10:41:30;29.40;;;15.02;;
7027;SDS011;3555;53.248;10.336;2022-08-19T10:43:59;24.20;;;14.73;;
7027;SDS011;3555;53.248;10.336;2022-08-19T10:46:28;26.95;;;17.00;;
7027;SDS011;3555;53.248;10.336;2022-08-19T10:48:57;22.38;;;15.93;;
7027;SDS011;3555;53.248;10.336;2022-08-19T10:51:25;25.35;;;16.15;;
7027;SDS011;3555;53.248;10.336;2022-08-19T10:54:11;27.40;;;17.17;;
7027;SDS011;3555;53.248;10.336;2022-08-19T10:56:37;26.27;;;18.00;;
7027;SDS011;3555;53.248;10.336;2022-08-19T10:59:16;28.17;;;18.05;;
7027;SDS011;3555;53.248;10.336;2022-08-19T11:01:46;28.55;;;18.13;;
7027;SDS011;3555;53.248;10.336;2022-08-19T11:04:13;27.92;;;18.70;;
7027;SDS011;3555;53.248;10.336;2022-08-19T11:06:43;26.23;;;17.92;;
7027;SDS011;3555;53.248;10.336;2022-08-19T11:09:14;27.63;;;17.38;;
7027;SDS011;3555;53.248;10.336;2022-08-19T11:11:42;29.55;;;19.63;;
7027;SDS011;3555;53.248;10.336;2022-08-19T11:14:09;22.60;;;15.80;;
7027;SDS011;3555;53.248;10.336;2022-08-19T11:16:38;25.48;;;18.08;;
7027;SDS011;3555;53.248;10.336;2022-08-19T11:19:06;26.30;;;18.27;;
7027;SDS011;3555;53.248;10.336;2022-08-19T11:21:34;28.27;;;18.33;;
7027;SDS011;3555;53.248;10.336;2022-08-19T11:24:04;25.60;;;16.65;;
7027;SDS011;3555;53.248;10.336;2022-08-19T11:26:35;22.30;;;16.38;;
7027;SDS011;3555;53.248;10.336;2022-08-19T11:29:03;25.15;;;16.90;;
7027;SDS011;3555;53.248;10.336;2022-08-19T11:31:32;25.90;;;16.40;;
7027;SDS011;3555;53.248;10.336;2022-08-19T11:34:03;30.65;;;20.38;;
7027;SDS011;3555;53.248;10.336;2022-08-19T11:36:31;34.55;;;21.48;;
7027;SDS011;3555;53.248;10.336;2022-08-19T11:38:58;27.55;;;20.25;;
7027;SDS011;3555;53.248;10.336;2022-08-19T11:41:26;32.05;;;22.02;;
7027;SDS011;3555;53.248;10.336;2022-08-19T11:43:55;30.30;;;21.58;;
7027;SDS011;3555;53.248;10.336;2022-08-19T11:46:23;35.20;;;21.70;;
7027;SDS011;3555;53.248;10.336;2022-08-19T11:48:54;31.30;;;21.17;;
7027;SDS011;3555;53.248;10.336;2022-08-19T11:51:22;33.00;;;22.83;;
7027;SDS011;3555;53.248;10.336;2022-08-19T11:53:50;34.95;;;22.33;;
7027;SDS011;3555;53.248;10.336;2022-08-19T11:56:18;30.83;;;22.95;;
7027;SDS011;3555;53.248;10.336;2022-08-19T11:58:45;29.00;;;21.98;;
7027;SDS011;3555;53.248;10.336;2022-08-19T12:01:14;27.73;;;20.25;;
7027;SDS011;3555;53.248;10.336;2022-08-19T12:03:43;28.00;;;19.92;;
7027;SDS011;3555;53.248;10.336;2022-08-19T12:06:13;26.45;;;21.35;;
7027;SDS011;3555;53.248;10.336;2022-08-19T12:08:42;28.65;;;20.23;;
7027;SDS011;3555;53.248;10.336;2022-08-19T12:11:10;24.67;;;18.27;;
7027;SDS011;3555;53.248;10.336;2022-08-19T12:13:39;25.77;;;20.17;;
7027;SDS011;3555;53.248;10.336;2022-08-19T12:16:10;31.35;;;20.75;;
7027;SDS011;3555;53.248;10.336;2022-08-19T12:18:40;27.73;;;20.95;;
7027;SDS011;3555;53.248;10.336;2022-08-19T12:21:09;22.33;;;17.75;;
7027;SDS011;3555;53.248;10.336;2022-08-19T12:23:38;22.90;;;18.63;;
7027;SDS011;3555;53.248;10.336;2022-08-19T12:26:05;30.55;;;20.85;;
7027;SDS011;3555;53.248;10.336;2022-08-19T12:28:32;21.90;;;16.50;;
7027;SDS011;3555;53.248;10.336;2022-08-19T12:30:59;23.25;;;18.55;;
7027;SDS011;3555;53.248;10.336;2022-08-19T12:33:26;25.58;;;19.35;;
7027;SDS011;3555;53.248;10.336;2022-08-19T12:35:55;22.52;;;19.40;;
7027;SDS011;3555;53.248;10.336;2022-08-19T12:38:26;21.42;;;19.13;;
7027;SDS011;3555;53.248;10.336;2022-08-19T12:40:53;27.65;;;23.67;;
7027;SDS011;3555;53.248;10.336;2022-08-19T12:43:20;23.30;;;20.75;;
7027;SDS011;3555;53.248;10.336;2022-08-19T12:45:47;27.30;;;21.92;;
7027;SDS011;3555;53.248;10.336;2022-08-19T12:48:15;24.25;;;21.17;;
7027;SDS011;3555;53.248;10.336;2022-08-19T12:50:43;22.75;;;18.95;;
7027;SDS011;3555;53.248;10.336;2022-08-19T12:53:13;29.50;;;23.63;;
7027;SDS011;3555;53.248;10.336;2022-08-19T12:55:40;23.63;;;21.10;;
7027;SDS011;3555;53.248;10.336;2022-08-19T12:58:08;25.08;;;21.90;;
7027;SDS011;3555;53.248;10.336;2022-08-19T13:00:37;20.10;;;18.00;;
7027;SDS011;3555;53.248;10.336;2022-08-19T13:03:04;25.73;;;22.35;;
7027;SDS011;3555;53.248;10.336;2022-08-19T13:05:32;25.60;;;21.98;;
7027;SDS011;3555;53.248;10.336;2022-08-19T13:08:00;27.00;;;23.13;;
7027;SDS011;3555;53.248;10.336;2022-08-19T13:10:29;25.42;;;22.05;;
7027;SDS011;3555;53.248;10.336;2022-08-19T13:13:00;24.38;;;19.85;;
7027;SDS011;3555;53.248;10.336;2022-08-19T13:15:28;26.10;;;22.65;;
7027;SDS011;3555;53.248;10.336;2022-08-19T13:17:56;27.90;;;23.10;;
7027;SDS011;3555;53.248;10.336;2022-08-19T13:20:24;24.13;;;20.65;;
7027;SDS011;3555;53.248;10.336;2022-08-19T13:22:51;23.90;;;21.40;;
7027;SDS011;3555;53.248;10.336;2022-08-19T13:25:19;24.30;;;21.48;;
7027;SDS011;3555;53.248;10.336;2022-08-19T13:27:47;23.67;;;20.40;;
7027;SDS011;3555;53.248;10.336;2022-08-19T13:30:16;22.33;;;20.05;;
7027;SDS011;3555;53.248;10.336;2022-08-19T13:33:02;23.60;;;21.08;;
7027;SDS011;3555;53.248;10.336;2022-08-19T13:35:40;24.63;;;21.70;;
7027;SDS011;3555;53.248;10.336;2022-08-19T13:38:09;22.50;;;19.30;;
7027;SDS011;3555;53.248;10.336;2022-08-19T13:40:36;22.02;;;19.67;;
7027;SDS011;3555;53.248;10.336;2022-08-19T13:43:05;21.52;;;18.77;;
7027;SDS011;3555;53.248;10.336;2022-08-19T13:45:34;22.38;;;19.20;;
7027;SDS011;3555;53.248;10.336;2022-08-19T13:48:01;20.80;;;15.85;;
7027;SDS011;3555;53.248;10.336;2022-08-19T13:50:31;18.67;;;16.77;;
7027;SDS011;3555;53.248;10.336;2022-08-19T13:52:59;20.58;;;18.40;;
7027;SDS011;3555;53.248;10.336;2022-08-19T13:55:28;21.38;;;18.90;;
7027;SDS011;3555;53.248;10.336;2022-08-19T13:57:56;18.58;;;16.65;;
7027;SDS011;3555;53.248;10.336;2022-08-19T14:00:27;18.00;;;16.20;;
7027;SDS011;3555;53.248;10.336;2022-08-19T14:02:55;22.42;;;20.10;;
7027;SDS011;3555;53.248;10.336;2022-08-19T14:05:23;17.65;;;15.85;;
7027;SDS011;3555;53.248;10.336;2022-08-19T14:07:51;18.27;;;16.38;;
7027;SDS011;3555;53.248;10.336;2022-08-19T14:10:18;19.30;;;17.30;;
7027;SDS011;3555;53.248;10.336;2022-08-19T14:12:46;18.50;;;16.55;;
7027;SDS011;3555;53.248;10.336;2022-08-19T14:15:14;20.20;;;17.55;;
7027;SDS011;3555;53.248;10.336;2022-08-19T14:17:43;17.95;;;16.13;;
7027;SDS011;3555;53.248;10.336;2022-08-19T14:20:13;19.10;;;17.30;;
7027;SDS011;3555;53.248;10.336;2022-08-19T14:22:41;16.63;;;15.02;;
7027;SDS011;3555;53.248;10.336;2022-08-19T14:25:10;18.15;;;16.25;;
7027;SDS011;3555;53.248;10.336;2022-08-19T14:27:39;17.15;;;15.35;;
7027;SDS011;3555;53.248;10.336;2022-08-19T14:30:07;20.90;;;18.67;;
7027;SDS011;3555;53.248;10.336;2022-08-19T14:32:36;16.90;;;15.18;;
7027;SDS011;3555;53.248;10.336;2022-08-19T14:35:05;16.67;;;14.98;;
7027;SDS011;3555;53.248;10.336;2022-08-19T14:37:33;18.10;;;16.30;;
7027;SDS011;3555;53.248;10.336;2022-08-19T14:40:00;19.83;;;17.77;;
7027;SDS011;3555;53.248;10.336;2022-08-19T14:42:28;21.80;;;17.63;;
7027;SDS011;3555;53.248;10.336;2022-08-19T14:44:57;17.35;;;15.68;;
7027;SDS011;3555;53.248;10.336;2022-08-19T14:47:25;16.15;;;14.55;;
7027;SDS011;3555;53.248;10.336;2022-08-19T14:49:52;15.15;;;13.65;;
7027;SDS011;3555;53.248;10.336;2022-08-19T14:52:20;18.75;;;16.85;;